CCA8927 ZYTL-ZUUU
Flight info
| Callsign | CCA8927 |
|---|---|
| Flight time | 2h 57m |
| Altitude | 36100 |
| Route | ORAVA W576 OVTUP W55 PAMRU W34 VYK B215 GODON W43 SAVPA W276 ANRUG W279 ONEBA G212 SUBUL W230 AKDIK |
| Aircraft | B77W/H-SDE1E2E3FGHIJ2J3J4J5M1RWXY/LB1D1 |
Departure
| Time | 2026-04-22 10:26 |
|---|---|
| Airport | Dalian Zhoushuizi International Airport (ZYTL) |
Arrival
| Time | 2026-04-22 13:23 |
|---|---|
| Airport | Chengdu Shuangliu International Airport (ZUUU) |
| Time | Latitude | Longitude | Altitude | Speed | Heading |
|---|---|---|---|---|---|
| 2026-04-22 10:13 | 38.96242 | 121.54129 | 120 ft | 0 kts | 182° |
| 2026-04-22 10:19 | 38.96248 | 121.54130 | 118 ft | 3 kts | 176° |
| 2026-04-22 10:19 | 38.96268 | 121.54125 | 116 ft | 3 kts | 159° |
| 2026-04-22 10:20 | 38.96285 | 121.54114 | 116 ft | 3 kts | 142° |
| 2026-04-22 10:20 | 38.96298 | 121.54098 | 117 ft | 3 kts | 125° |
| 2026-04-22 10:20 | 38.96308 | 121.54076 | 116 ft | 3 kts | 108° |
| 2026-04-22 10:20 | 38.96310 | 121.54064 | 116 ft | 0 kts | 98° |
| 2026-04-22 10:22 | 38.96312 | 121.54080 | 116 ft | 3 kts | 80° |
| 2026-04-22 10:22 | 38.96331 | 121.54118 | 116 ft | 7 kts | 52° |
| 2026-04-22 10:22 | 38.96350 | 121.54189 | 116 ft | 10 kts | 83° |
| 2026-04-22 10:22 | 38.96347 | 121.54299 | 119 ft | 14 kts | 95° |
| 2026-04-22 10:23 | 38.96338 | 121.54439 | 117 ft | 17 kts | 95° |
| 2026-04-22 10:23 | 38.96327 | 121.54608 | 117 ft | 21 kts | 96° |
| 2026-04-22 10:23 | 38.96310 | 121.54804 | 117 ft | 24 kts | 96° |
| 2026-04-22 10:23 | 38.96275 | 121.55021 | 118 ft | 26 kts | 103° |
| 2026-04-22 10:24 | 38.96252 | 121.55257 | 117 ft | 28 kts | 95° |
| 2026-04-22 10:24 | 38.96234 | 121.55503 | 120 ft | 28 kts | 96° |
| 2026-04-22 10:24 | 38.96225 | 121.55651 | 117 ft | 13 kts | 79° |
| 2026-04-22 10:24 | 38.96296 | 121.55706 | 115 ft | 13 kts | 6° |
| 2026-04-22 10:25 | 38.96385 | 121.55713 | 118 ft | 13 kts | 352° |
| 2026-04-22 10:25 | 38.96423 | 121.55621 | 120 ft | 13 kts | 272° |
| 2026-04-22 10:25 | 38.96431 | 121.55500 | 119 ft | 20 kts | 275° |
| 2026-04-22 10:25 | 38.96463 | 121.55092 | 120 ft | 83 kts | 276° |
| 2026-04-22 10:26 | 38.96545 | 121.54025 | 118 ft | 154 kts | 275° |
| 2026-04-22 10:26 | 38.96656 | 121.52504 | 546 ft | 174 kts | 275° |
| 2026-04-22 10:26 | 38.96761 | 121.50980 | 1471 ft | 167 kts | 272° |
| 2026-04-22 10:26 | 38.96848 | 121.49521 | 2378 ft | 164 kts | 274° |
| 2026-04-22 10:27 | 38.96990 | 121.48009 | 3074 ft | 173 kts | 276° |
| 2026-04-22 10:27 | 38.97101 | 121.46487 | 3939 ft | 166 kts | 272° |
| 2026-04-22 10:27 | 38.97224 | 121.44972 | 4637 ft | 175 kts | 277° |
| 2026-04-22 10:27 | 38.97382 | 121.43319 | 4981 ft | 198 kts | 276° |
| 2026-04-22 10:28 | 38.97528 | 121.41466 | 5238 ft | 226 kts | 279° |
| 2026-04-22 10:28 | 38.98114 | 121.39520 | 5729 ft | 240 kts | 303° |
| 2026-04-22 10:28 | 38.99219 | 121.37839 | 6376 ft | 257 kts | 318° |
| 2026-04-22 10:28 | 39.00714 | 121.36557 | 7151 ft | 262 kts | 339° |
| 2026-04-22 10:29 | 39.02543 | 121.36317 | 7926 ft | 268 kts | 4° |
| 2026-04-22 10:29 | 39.04377 | 121.36893 | 8549 ft | 279 kts | 29° |
| 2026-04-22 10:29 | 39.05769 | 121.38665 | 9503 ft | 287 kts | 57° |
| 2026-04-22 10:29 | 39.06467 | 121.41085 | 10320 ft | 295 kts | 78° |
| 2026-04-22 10:30 | 39.06473 | 121.43794 | 10695 ft | 316 kts | 94° |
| 2026-04-22 10:30 | 39.06220 | 121.46727 | 10902 ft | 344 kts | 95° |
| 2026-04-22 10:30 | 39.05931 | 121.49904 | 11102 ft | 368 kts | 97° |
| 2026-04-22 10:30 | 39.05091 | 121.53107 | 11453 ft | 389 kts | 121° |
| 2026-04-22 10:31 | 39.03313 | 121.55709 | 12275 ft | 399 kts | 144° |
| 2026-04-22 10:31 | 39.00825 | 121.57276 | 13335 ft | 400 kts | 168° |
| 2026-04-22 10:31 | 38.98068 | 121.57495 | 14270 ft | 399 kts | 190° |
| 2026-04-22 10:31 | 38.95437 | 121.56442 | 15113 ft | 396 kts | 213° |
| 2026-04-22 10:32 | 38.93148 | 121.54493 | 15935 ft | 397 kts | 219° |
| 2026-04-22 10:32 | 38.90855 | 121.52453 | 16804 ft | 403 kts | 218° |
| 2026-04-22 10:32 | 38.88523 | 121.50430 | 17828 ft | 406 kts | 218° |
| 2026-04-22 10:32 | 38.86161 | 121.48406 | 18706 ft | 411 kts | 218° |
| 2026-04-22 10:33 | 38.83761 | 121.46371 | 19550 ft | 414 kts | 218° |
| 2026-04-22 10:33 | 38.81352 | 121.44338 | 20428 ft | 416 kts | 218° |
| 2026-04-22 10:33 | 38.78953 | 121.42314 | 21273 ft | 418 kts | 219° |
| 2026-04-22 10:33 | 38.76516 | 121.40255 | 22076 ft | 422 kts | 219° |
| 2026-04-22 10:34 | 38.74049 | 121.38170 | 22848 ft | 426 kts | 219° |
| 2026-04-22 10:34 | 38.71562 | 121.36070 | 23615 ft | 429 kts | 219° |
| 2026-04-22 10:34 | 38.69054 | 121.33955 | 24288 ft | 431 kts | 219° |
| 2026-04-22 10:34 | 38.66548 | 121.31845 | 25019 ft | 431 kts | 219° |
| 2026-04-22 10:35 | 38.64044 | 121.29732 | 25750 ft | 431 kts | 219° |
| 2026-04-22 10:35 | 38.61543 | 121.27619 | 26444 ft | 431 kts | 219° |
| 2026-04-22 10:35 | 38.59182 | 121.25326 | 26942 ft | 424 kts | 230° |
| 2026-04-22 10:35 | 38.57475 | 121.22306 | 27432 ft | 419 kts | 246° |
| 2026-04-22 10:36 | 38.56467 | 121.18833 | 28051 ft | 417 kts | 256° |
| 2026-04-22 10:36 | 38.55894 | 121.15199 | 28676 ft | 417 kts | 262° |
| 2026-04-22 10:36 | 38.55889 | 121.11494 | 29182 ft | 419 kts | 276° |
| 2026-04-22 10:36 | 38.56473 | 121.07811 | 29501 ft | 426 kts | 279° |
| 2026-04-22 10:37 | 38.57138 | 121.04148 | 29877 ft | 430 kts | 279° |
| 2026-04-22 10:37 | 38.58468 | 120.96806 | 31251 ft | 418 kts | 278° |
| 2026-04-22 10:37 | 38.59092 | 120.93201 | 31873 ft | 413 kts | 278° |
| 2026-04-22 10:38 | 38.59694 | 120.89623 | 32408 ft | 411 kts | 278° |
| 2026-04-22 10:38 | 38.60284 | 120.86049 | 32883 ft | 410 kts | 277° |
| 2026-04-22 10:38 | 38.60867 | 120.82487 | 33357 ft | 408 kts | 277° |
| 2026-04-22 10:38 | 38.61446 | 120.78940 | 33810 ft | 407 kts | 277° |
| 2026-04-22 10:39 | 38.62022 | 120.75408 | 34229 ft | 405 kts | 277° |
| 2026-04-22 10:39 | 38.62595 | 120.71891 | 34597 ft | 404 kts | 277° |
| 2026-04-22 10:39 | 38.63168 | 120.68371 | 34949 ft | 402 kts | 277° |
| 2026-04-22 10:39 | 38.63738 | 120.64866 | 35320 ft | 401 kts | 277° |
| 2026-04-22 10:40 | 38.64295 | 120.61434 | 35683 ft | 399 kts | 278° |
| 2026-04-22 10:40 | 38.64857 | 120.57962 | 36028 ft | 398 kts | 278° |
| 2026-04-22 10:40 | 38.65429 | 120.54475 | 36054 ft | 402 kts | 278° |
| 2026-04-22 10:41 | 38.66592 | 120.47477 | 36108 ft | 400 kts | 278° |
| 2026-04-22 10:41 | 38.67739 | 120.40543 | 36118 ft | 396 kts | 278° |
| 2026-04-22 10:42 | 38.68869 | 120.33659 | 36119 ft | 395 kts | 278° |
| 2026-04-22 10:42 | 38.69330 | 120.26774 | 36127 ft | 387 kts | 259° |
| 2026-04-22 10:43 | 38.67328 | 120.20334 | 36134 ft | 394 kts | 245° |
| 2026-04-22 10:43 | 38.64008 | 120.14686 | 36104 ft | 412 kts | 224° |
| 2026-04-22 10:44 | 38.59077 | 120.10752 | 36118 ft | 420 kts | 219° |
| 2026-04-22 10:44 | 38.54086 | 120.06886 | 36113 ft | 420 kts | 220° |
| 2026-04-22 10:45 | 38.49178 | 120.02933 | 36111 ft | 419 kts | 220° |
| 2026-04-22 10:45 | 38.45110 | 119.99497 | 36116 ft | 414 kts | 225° |
| 2026-04-22 10:46 | 38.40156 | 119.93895 | 36112 ft | 406 kts | 233° |
| 2026-04-22 10:46 | 38.37011 | 119.89480 | 36106 ft | 405 kts | 234° |
| 2026-04-22 10:47 | 38.33234 | 119.84150 | 36108 ft | 406 kts | 234° |
| 2026-04-22 10:47 | 38.29438 | 119.78826 | 36119 ft | 406 kts | 233° |
| 2026-04-22 10:48 | 38.25625 | 119.73501 | 36112 ft | 407 kts | 233° |
| 2026-04-22 10:48 | 38.21805 | 119.68176 | 36111 ft | 407 kts | 233° |
| 2026-04-22 10:49 | 38.17978 | 119.62849 | 36112 ft | 408 kts | 233° |
| 2026-04-22 10:49 | 38.14621 | 119.57196 | 36120 ft | 395 kts | 251° |
| 2026-04-22 10:50 | 38.13592 | 119.50397 | 36128 ft | 394 kts | 265° |
| 2026-04-22 10:50 | 38.14114 | 119.43468 | 36114 ft | 402 kts | 285° |
| 2026-04-22 10:51 | 38.16292 | 119.36923 | 36125 ft | 407 kts | 288° |
| 2026-04-22 10:51 | 38.18549 | 119.30305 | 36124 ft | 409 kts | 287° |
| 2026-04-22 10:52 | 38.20758 | 119.23626 | 36119 ft | 410 kts | 287° |
| 2026-04-22 10:52 | 38.22936 | 119.16922 | 36118 ft | 410 kts | 287° |
| 2026-04-22 10:53 | 38.25086 | 119.10262 | 36115 ft | 409 kts | 287° |
| 2026-04-22 10:53 | 38.27241 | 119.03572 | 36119 ft | 408 kts | 287° |
| 2026-04-22 10:54 | 38.29389 | 118.96892 | 36114 ft | 407 kts | 287° |
| 2026-04-22 10:54 | 38.31529 | 118.90220 | 36121 ft | 406 kts | 287° |
| 2026-04-22 10:55 | 38.33661 | 118.83558 | 36116 ft | 406 kts | 287° |
| 2026-04-22 10:55 | 38.35787 | 118.76901 | 36121 ft | 406 kts | 286° |
| 2026-04-22 10:56 | 38.37907 | 118.70239 | 36116 ft | 405 kts | 286° |
| 2026-04-22 10:56 | 38.40021 | 118.63574 | 36120 ft | 405 kts | 286° |
| 2026-04-22 10:57 | 38.42119 | 118.56943 | 36118 ft | 406 kts | 286° |
| 2026-04-22 10:57 | 38.44226 | 118.50266 | 36119 ft | 406 kts | 286° |
| 2026-04-22 10:58 | 38.46334 | 118.43579 | 36116 ft | 406 kts | 286° |
| 2026-04-22 10:58 | 38.48439 | 118.36890 | 36117 ft | 406 kts | 286° |
| 2026-04-22 10:59 | 38.50547 | 118.30204 | 36115 ft | 406 kts | 286° |
| 2026-04-22 10:59 | 38.52649 | 118.23521 | 36116 ft | 406 kts | 285° |
| 2026-04-22 11:00 | 38.54747 | 118.16833 | 36116 ft | 405 kts | 285° |
| 2026-04-22 11:00 | 38.56841 | 118.10142 | 36116 ft | 405 kts | 285° |
| 2026-04-22 11:01 | 38.59500 | 118.03709 | 36117 ft | 414 kts | 295° |
| 2026-04-22 11:01 | 38.62927 | 117.97708 | 36110 ft | 424 kts | 303° |
| 2026-04-22 11:02 | 38.66979 | 117.92262 | 36124 ft | 426 kts | 305° |
| 2026-04-22 11:02 | 38.71117 | 117.86842 | 36116 ft | 426 kts | 305° |
| 2026-04-22 11:03 | 38.75238 | 117.81384 | 36113 ft | 425 kts | 304° |
| 2026-04-22 11:03 | 38.79330 | 117.75916 | 36108 ft | 425 kts | 304° |
| 2026-04-22 11:04 | 38.83420 | 117.70431 | 36114 ft | 425 kts | 304° |
| 2026-04-22 11:04 | 38.87510 | 117.64936 | 36104 ft | 426 kts | 304° |
| 2026-04-22 11:05 | 38.91605 | 117.59425 | 36085 ft | 427 kts | 304° |
| 2026-04-22 11:05 | 38.95678 | 117.53936 | 36084 ft | 427 kts | 304° |
| 2026-04-22 11:06 | 38.99785 | 117.48389 | 36120 ft | 430 kts | 304° |
| 2026-04-22 11:06 | 39.01851 | 117.45596 | 36410 ft | 430 kts | 304° |
| 2026-04-22 11:06 | 39.03908 | 117.42816 | 36815 ft | 426 kts | 304° |
| 2026-04-22 11:06 | 39.05741 | 117.39903 | 37157 ft | 413 kts | 294° |
| 2026-04-22 11:07 | 39.07110 | 117.36706 | 37525 ft | 404 kts | 288° |
| 2026-04-22 11:07 | 39.08202 | 117.33395 | 37723 ft | 401 kts | 283° |
| 2026-04-22 11:07 | 39.08958 | 117.29969 | 37847 ft | 396 kts | 275° |
| 2026-04-22 11:07 | 39.09418 | 117.26475 | 37982 ft | 396 kts | 274° |
| 2026-04-22 11:08 | 39.09852 | 117.22956 | 38030 ft | 397 kts | 274° |
| 2026-04-22 11:08 | 39.10729 | 117.15940 | 38059 ft | 396 kts | 274° |
| 2026-04-22 11:09 | 39.11624 | 117.09023 | 38069 ft | 393 kts | 274° |
| 2026-04-22 11:09 | 39.12526 | 117.02092 | 38065 ft | 392 kts | 274° |
| 2026-04-22 11:10 | 39.13485 | 116.95169 | 38070 ft | 393 kts | 276° |
| 2026-04-22 11:10 | 39.14609 | 116.88250 | 38058 ft | 394 kts | 276° |
| 2026-04-22 11:11 | 39.15726 | 116.81319 | 38063 ft | 395 kts | 276° |
| 2026-04-22 11:11 | 39.16823 | 116.74363 | 38062 ft | 396 kts | 275° |
| 2026-04-22 11:12 | 39.17911 | 116.67412 | 38064 ft | 397 kts | 275° |
| 2026-04-22 11:12 | 39.18709 | 116.60450 | 38066 ft | 391 kts | 266° |
| 2026-04-22 11:13 | 39.18402 | 116.53471 | 38059 ft | 389 kts | 260° |
| 2026-04-22 11:13 | 39.17170 | 116.46713 | 38058 ft | 388 kts | 252° |
| 2026-04-22 11:14 | 39.15596 | 116.40056 | 38057 ft | 389 kts | 252° |
| 2026-04-22 11:14 | 39.14022 | 116.33387 | 38058 ft | 390 kts | 252° |
| 2026-04-22 11:15 | 39.12460 | 116.26696 | 38061 ft | 390 kts | 252° |
| 2026-04-22 11:15 | 39.10899 | 116.19983 | 38056 ft | 391 kts | 252° |
| 2026-04-22 11:16 | 39.09346 | 116.13314 | 38057 ft | 391 kts | 252° |
| 2026-04-22 11:16 | 39.07778 | 116.06601 | 38054 ft | 391 kts | 252° |
| 2026-04-22 11:17 | 39.06205 | 115.99882 | 38059 ft | 391 kts | 252° |
| 2026-04-22 11:17 | 39.04629 | 115.93176 | 38051 ft | 391 kts | 252° |
| 2026-04-22 11:18 | 39.03049 | 115.86469 | 38057 ft | 392 kts | 252° |
| 2026-04-22 11:18 | 39.01465 | 115.79763 | 38051 ft | 392 kts | 252° |
| 2026-04-22 11:19 | 38.99885 | 115.73096 | 38052 ft | 393 kts | 252° |
| 2026-04-22 11:19 | 38.98290 | 115.66381 | 38049 ft | 393 kts | 252° |
| 2026-04-22 11:20 | 38.96687 | 115.59650 | 38057 ft | 394 kts | 252° |
| 2026-04-22 11:20 | 38.95077 | 115.52914 | 38053 ft | 395 kts | 252° |
| 2026-04-22 11:21 | 38.93074 | 115.46348 | 38052 ft | 396 kts | 246° |
| 2026-04-22 11:21 | 38.90790 | 115.39903 | 38049 ft | 397 kts | 246° |
| 2026-04-22 11:22 | 38.88511 | 115.33443 | 38054 ft | 398 kts | 246° |
| 2026-04-22 11:22 | 38.86229 | 115.26966 | 38054 ft | 398 kts | 246° |
| 2026-04-22 11:23 | 38.83943 | 115.20486 | 38054 ft | 399 kts | 246° |
| 2026-04-22 11:23 | 38.81646 | 115.13993 | 38052 ft | 400 kts | 246° |
| 2026-04-22 11:24 | 38.79342 | 115.07489 | 38055 ft | 401 kts | 246° |
| 2026-04-22 11:24 | 38.77043 | 115.01017 | 38300 ft | 402 kts | 247° |
| 2026-04-22 11:24 | 38.75873 | 114.97728 | 38174 ft | 409 kts | 247° |
| 2026-04-22 11:25 | 38.74686 | 114.94390 | 38125 ft | 413 kts | 247° |
| 2026-04-22 11:25 | 38.72293 | 114.87664 | 38063 ft | 415 kts | 247° |
| 2026-04-22 11:26 | 38.69894 | 114.80937 | 38058 ft | 414 kts | 247° |
| 2026-04-22 11:26 | 38.67499 | 114.74231 | 38051 ft | 413 kts | 247° |
| 2026-04-22 11:27 | 38.65107 | 114.67547 | 38055 ft | 413 kts | 247° |
| 2026-04-22 11:27 | 38.62715 | 114.60881 | 38048 ft | 412 kts | 247° |
| 2026-04-22 11:28 | 38.60346 | 114.54270 | 38053 ft | 412 kts | 247° |
| 2026-04-22 11:28 | 38.57952 | 114.47614 | 38058 ft | 412 kts | 247° |
| 2026-04-22 11:29 | 38.55537 | 114.40965 | 38058 ft | 413 kts | 247° |
| 2026-04-22 11:29 | 38.53117 | 114.34315 | 38055 ft | 413 kts | 247° |
| 2026-04-22 11:30 | 38.50689 | 114.27649 | 38063 ft | 414 kts | 247° |
| 2026-04-22 11:30 | 38.48253 | 114.20974 | 38062 ft | 415 kts | 247° |
| 2026-04-22 11:31 | 38.46227 | 114.15433 | 38064 ft | 415 kts | 247° |
| 2026-04-22 11:31 | 38.43383 | 114.07668 | 38061 ft | 416 kts | 246° |
| 2026-04-22 11:32 | 38.40929 | 114.00988 | 38068 ft | 416 kts | 247° |
| 2026-04-22 11:32 | 38.38479 | 113.94308 | 38062 ft | 416 kts | 246° |
| 2026-04-22 11:33 | 38.36026 | 113.87632 | 38061 ft | 416 kts | 246° |
| 2026-04-22 11:33 | 38.33983 | 113.82087 | 38072 ft | 416 kts | 246° |
| 2026-04-22 11:34 | 38.31491 | 113.75448 | 38068 ft | 415 kts | 246° |
| 2026-04-22 11:34 | 38.28984 | 113.68823 | 38072 ft | 415 kts | 246° |
| 2026-04-22 11:35 | 38.26472 | 113.62187 | 38071 ft | 416 kts | 246° |
| 2026-04-22 11:35 | 38.23959 | 113.55556 | 38079 ft | 416 kts | 246° |
| 2026-04-22 11:36 | 38.21444 | 113.48929 | 38072 ft | 415 kts | 246° |
| 2026-04-22 11:36 | 38.18932 | 113.42320 | 38068 ft | 416 kts | 246° |
| 2026-04-22 11:37 | 38.16423 | 113.35735 | 38085 ft | 418 kts | 246° |
| 2026-04-22 11:37 | 38.13921 | 113.29056 | 38082 ft | 419 kts | 246° |
| 2026-04-22 11:38 | 38.11426 | 113.22343 | 38071 ft | 420 kts | 246° |
| 2026-04-22 11:38 | 38.07666 | 113.12274 | 38065 ft | 421 kts | 246° |
| 2026-04-22 11:39 | 38.05149 | 113.05562 | 38070 ft | 421 kts | 246° |
| 2026-04-22 11:39 | 38.02628 | 112.98854 | 38071 ft | 421 kts | 246° |
| 2026-04-22 11:40 | 38.00100 | 112.92142 | 38069 ft | 422 kts | 246° |
| 2026-04-22 11:40 | 37.97588 | 112.85488 | 38057 ft | 422 kts | 246° |
| 2026-04-22 11:41 | 37.95051 | 112.78782 | 38070 ft | 421 kts | 246° |
| 2026-04-22 11:41 | 37.92515 | 112.72094 | 38073 ft | 421 kts | 246° |
| 2026-04-22 11:42 | 37.89975 | 112.65403 | 38065 ft | 422 kts | 246° |
| 2026-04-22 11:42 | 37.87425 | 112.58706 | 38070 ft | 423 kts | 246° |
| 2026-04-22 11:43 | 37.84675 | 112.52103 | 38063 ft | 424 kts | 244° |
| 2026-04-22 11:43 | 37.81834 | 112.45568 | 38065 ft | 424 kts | 244° |
| 2026-04-22 11:44 | 37.79026 | 112.39014 | 38068 ft | 424 kts | 244° |
| 2026-04-22 11:44 | 37.76266 | 112.32441 | 38052 ft | 423 kts | 246° |
| 2026-04-22 11:45 | 37.73726 | 112.25754 | 38070 ft | 421 kts | 247° |
| 2026-04-22 11:45 | 37.71215 | 112.19055 | 38068 ft | 422 kts | 247° |
| 2026-04-22 11:46 | 37.68692 | 112.12420 | 38055 ft | 422 kts | 246° |
| 2026-04-22 11:46 | 37.66127 | 112.05730 | 38064 ft | 423 kts | 246° |
| 2026-04-22 11:47 | 37.63557 | 111.99053 | 38075 ft | 423 kts | 246° |
| 2026-04-22 11:47 | 37.60977 | 111.92363 | 38058 ft | 423 kts | 246° |
| 2026-04-22 11:48 | 37.58402 | 111.85694 | 38075 ft | 423 kts | 246° |
| 2026-04-22 11:48 | 37.55820 | 111.79023 | 38079 ft | 423 kts | 246° |
| 2026-04-22 11:49 | 37.53240 | 111.72406 | 38077 ft | 423 kts | 246° |
| 2026-04-22 11:49 | 37.50495 | 111.65834 | 38081 ft | 425 kts | 242° |
| 2026-04-22 11:50 | 37.47195 | 111.59638 | 38080 ft | 426 kts | 239° |
| 2026-04-22 11:50 | 37.43850 | 111.53453 | 38085 ft | 427 kts | 239° |
| 2026-04-22 11:51 | 37.40517 | 111.47269 | 38079 ft | 427 kts | 239° |
| 2026-04-22 11:51 | 37.37189 | 111.41091 | 38087 ft | 426 kts | 239° |
| 2026-04-22 11:52 | 37.33862 | 111.34922 | 38077 ft | 426 kts | 239° |
| 2026-04-22 11:52 | 37.30534 | 111.28765 | 38079 ft | 425 kts | 239° |
| 2026-04-22 11:53 | 37.27233 | 111.22668 | 38085 ft | 424 kts | 239° |
| 2026-04-22 11:53 | 37.23911 | 111.16542 | 38081 ft | 424 kts | 239° |
| 2026-04-22 11:54 | 37.20595 | 111.10437 | 38087 ft | 423 kts | 239° |
| 2026-04-22 11:54 | 37.17274 | 111.04337 | 38085 ft | 423 kts | 239° |
| 2026-04-22 11:55 | 37.13957 | 110.98254 | 38086 ft | 422 kts | 240° |
| 2026-04-22 11:55 | 37.10643 | 110.92188 | 38086 ft | 422 kts | 239° |
| 2026-04-22 11:56 | 37.07343 | 110.86157 | 38087 ft | 422 kts | 239° |
| 2026-04-22 11:56 | 37.04017 | 110.80090 | 38074 ft | 422 kts | 239° |
| 2026-04-22 11:57 | 37.00695 | 110.74040 | 38072 ft | 421 kts | 239° |
| 2026-04-22 11:57 | 36.97411 | 110.67983 | 38068 ft | 421 kts | 240° |
| 2026-04-22 11:58 | 36.94168 | 110.61890 | 38082 ft | 421 kts | 240° |
| 2026-04-22 11:58 | 36.90942 | 110.55835 | 38059 ft | 421 kts | 240° |
| 2026-04-22 11:59 | 36.87691 | 110.49761 | 38087 ft | 420 kts | 240° |
| 2026-04-22 11:59 | 36.84437 | 110.43701 | 38081 ft | 420 kts | 240° |
| 2026-04-22 12:00 | 36.81179 | 110.37642 | 38091 ft | 420 kts | 240° |
| 2026-04-22 12:00 | 36.77911 | 110.31575 | 38087 ft | 421 kts | 240° |
| 2026-04-22 12:01 | 36.74640 | 110.25515 | 38078 ft | 421 kts | 240° |
| 2026-04-22 12:01 | 36.71387 | 110.19501 | 38087 ft | 421 kts | 240° |
| 2026-04-22 12:02 | 36.68113 | 110.13457 | 38085 ft | 420 kts | 240° |
| 2026-04-22 12:02 | 36.64841 | 110.07429 | 38097 ft | 420 kts | 240° |
| 2026-04-22 12:03 | 36.61555 | 110.01380 | 38095 ft | 422 kts | 240° |
| 2026-04-22 12:03 | 36.58263 | 109.95335 | 38090 ft | 422 kts | 240° |
| 2026-04-22 12:04 | 36.54958 | 109.89279 | 38091 ft | 422 kts | 240° |
| 2026-04-22 12:04 | 36.51680 | 109.83283 | 38095 ft | 421 kts | 240° |
| 2026-04-22 12:05 | 36.48388 | 109.77268 | 38095 ft | 420 kts | 240° |
| 2026-04-22 12:05 | 36.45098 | 109.71262 | 38100 ft | 420 kts | 240° |
| 2026-04-22 12:06 | 36.41804 | 109.65270 | 38102 ft | 420 kts | 240° |
| 2026-04-22 12:06 | 36.38505 | 109.59277 | 38110 ft | 421 kts | 240° |
| 2026-04-22 12:07 | 36.35194 | 109.53267 | 38101 ft | 421 kts | 240° |
| 2026-04-22 12:07 | 36.31906 | 109.47312 | 38101 ft | 421 kts | 240° |
| 2026-04-22 12:08 | 36.28174 | 109.41679 | 38123 ft | 429 kts | 228° |
| 2026-04-22 12:08 | 36.23405 | 109.37127 | 38112 ft | 439 kts | 218° |
| 2026-04-22 12:09 | 36.17889 | 109.33723 | 38105 ft | 445 kts | 213° |
| 2026-04-22 12:09 | 36.12287 | 109.30474 | 38107 ft | 444 kts | 213° |
| 2026-04-22 12:10 | 36.06760 | 109.27203 | 38098 ft | 443 kts | 214° |
| 2026-04-22 12:10 | 36.01217 | 109.23886 | 38111 ft | 442 kts | 214° |
| 2026-04-22 12:11 | 35.95677 | 109.20579 | 38115 ft | 442 kts | 213° |
| 2026-04-22 12:11 | 35.90137 | 109.17279 | 38121 ft | 441 kts | 214° |
| 2026-04-22 12:12 | 35.84625 | 109.14031 | 38126 ft | 443 kts | 212° |
| 2026-04-22 12:12 | 35.78803 | 109.11332 | 38112 ft | 448 kts | 208° |
| 2026-04-22 12:13 | 35.72916 | 109.08752 | 38118 ft | 448 kts | 208° |
| 2026-04-22 12:13 | 35.67040 | 109.06164 | 38116 ft | 448 kts | 208° |
| 2026-04-22 12:14 | 35.61184 | 109.03570 | 38125 ft | 447 kts | 208° |
| 2026-04-22 12:14 | 35.55343 | 109.00982 | 38123 ft | 445 kts | 208° |
| 2026-04-22 12:15 | 35.49554 | 108.98419 | 38129 ft | 445 kts | 208° |
| 2026-04-22 12:15 | 35.43730 | 108.95846 | 38133 ft | 445 kts | 208° |
| 2026-04-22 12:16 | 35.37905 | 108.93276 | 38125 ft | 445 kts | 208° |
| 2026-04-22 12:16 | 35.32082 | 108.90710 | 38134 ft | 445 kts | 208° |
| 2026-04-22 12:17 | 35.26254 | 108.88146 | 38146 ft | 445 kts | 208° |
| 2026-04-22 12:17 | 35.20419 | 108.85583 | 38137 ft | 446 kts | 208° |
| 2026-04-22 12:18 | 35.14572 | 108.83021 | 38135 ft | 446 kts | 208° |
| 2026-04-22 12:18 | 35.08758 | 108.80476 | 38135 ft | 447 kts | 208° |
| 2026-04-22 12:19 | 35.03851 | 108.78331 | 38137 ft | 446 kts | 208° |
| 2026-04-22 12:19 | 34.97058 | 108.75366 | 38143 ft | 446 kts | 208° |
| 2026-04-22 12:20 | 34.92206 | 108.73252 | 38133 ft | 445 kts | 208° |
| 2026-04-22 12:20 | 34.86377 | 108.70715 | 38132 ft | 444 kts | 208° |
| 2026-04-22 12:21 | 34.80561 | 108.68188 | 38130 ft | 443 kts | 208° |
| 2026-04-22 12:21 | 34.74760 | 108.65671 | 38133 ft | 442 kts | 209° |
| 2026-04-22 12:22 | 34.68979 | 108.63165 | 38125 ft | 440 kts | 208° |
| 2026-04-22 12:22 | 34.63210 | 108.60668 | 38132 ft | 440 kts | 209° |
| 2026-04-22 12:23 | 34.57478 | 108.58190 | 38119 ft | 440 kts | 209° |
| 2026-04-22 12:23 | 34.51707 | 108.55700 | 38123 ft | 440 kts | 209° |
| 2026-04-22 12:24 | 34.45932 | 108.53214 | 38119 ft | 440 kts | 209° |
| 2026-04-22 12:24 | 34.40163 | 108.50735 | 38124 ft | 440 kts | 209° |
| 2026-04-22 12:25 | 34.34399 | 108.48261 | 38125 ft | 439 kts | 209° |
| 2026-04-22 12:25 | 34.28636 | 108.45789 | 38126 ft | 439 kts | 209° |
| 2026-04-22 12:26 | 34.22873 | 108.43322 | 38137 ft | 439 kts | 209° |
| 2026-04-22 12:26 | 34.17154 | 108.40877 | 38133 ft | 438 kts | 209° |
| 2026-04-22 12:27 | 34.11409 | 108.38424 | 38138 ft | 437 kts | 209° |
| 2026-04-22 12:27 | 34.05671 | 108.35978 | 38137 ft | 437 kts | 209° |
| 2026-04-22 12:28 | 33.99941 | 108.33539 | 38147 ft | 437 kts | 209° |
| 2026-04-22 12:28 | 33.94219 | 108.31103 | 38162 ft | 435 kts | 210° |
| 2026-04-22 12:29 | 33.88533 | 108.28695 | 38170 ft | 431 kts | 210° |
| 2026-04-22 12:29 | 33.82857 | 108.26286 | 38173 ft | 433 kts | 210° |
| 2026-04-22 12:30 | 33.74336 | 108.22677 | 38146 ft | 433 kts | 210° |
| 2026-04-22 12:31 | 33.68683 | 108.20289 | 38162 ft | 433 kts | 210° |
| 2026-04-22 12:31 | 33.63008 | 108.17893 | 38160 ft | 432 kts | 210° |
| 2026-04-22 12:32 | 33.57332 | 108.15508 | 38162 ft | 432 kts | 210° |
| 2026-04-22 12:32 | 33.48830 | 108.11928 | 38138 ft | 431 kts | 210° |
| 2026-04-22 12:33 | 33.43306 | 108.09325 | 38148 ft | 418 kts | 217° |
| 2026-04-22 12:33 | 33.38379 | 108.05799 | 38122 ft | 409 kts | 223° |
| 2026-04-22 12:34 | 33.33980 | 108.01621 | 38156 ft | 404 kts | 229° |
| 2026-04-22 12:34 | 33.29645 | 107.97267 | 38134 ft | 408 kts | 228° |
| 2026-04-22 12:35 | 33.25257 | 107.92930 | 38146 ft | 410 kts | 227° |
| 2026-04-22 12:35 | 33.20856 | 107.88591 | 38135 ft | 409 kts | 228° |
| 2026-04-22 12:36 | 33.16502 | 107.84299 | 38126 ft | 408 kts | 228° |
| 2026-04-22 12:36 | 33.12141 | 107.80006 | 38135 ft | 405 kts | 228° |
| 2026-04-22 12:37 | 33.07803 | 107.75742 | 38128 ft | 403 kts | 228° |
| 2026-04-22 12:37 | 33.03484 | 107.71502 | 38152 ft | 402 kts | 228° |
| 2026-04-22 12:38 | 32.99166 | 107.67263 | 38138 ft | 402 kts | 228° |
| 2026-04-22 12:38 | 32.94852 | 107.63036 | 38146 ft | 402 kts | 228° |
| 2026-04-22 12:39 | 32.88368 | 107.56693 | 38147 ft | 402 kts | 228° |
| 2026-04-22 12:40 | 32.84045 | 107.52467 | 38142 ft | 401 kts | 229° |
| 2026-04-22 12:40 | 32.80152 | 107.47822 | 38135 ft | 394 kts | 236° |
| 2026-04-22 12:41 | 32.76814 | 107.42689 | 38175 ft | 392 kts | 240° |
| 2026-04-22 12:41 | 32.73631 | 107.37430 | 38134 ft | 396 kts | 240° |
| 2026-04-22 12:42 | 32.70408 | 107.32121 | 38141 ft | 396 kts | 240° |
| 2026-04-22 12:42 | 32.67179 | 107.26824 | 38154 ft | 395 kts | 240° |
| 2026-04-22 12:43 | 32.63957 | 107.21559 | 38142 ft | 393 kts | 240° |
| 2026-04-22 12:43 | 32.60749 | 107.16326 | 38139 ft | 392 kts | 240° |
| 2026-04-22 12:44 | 32.57540 | 107.11093 | 38139 ft | 392 kts | 240° |
| 2026-04-22 12:44 | 32.54325 | 107.05861 | 38127 ft | 392 kts | 240° |
| 2026-04-22 12:45 | 32.51109 | 107.00635 | 38121 ft | 392 kts | 240° |
| 2026-04-22 12:45 | 32.47922 | 106.95458 | 38126 ft | 390 kts | 240° |
| 2026-04-22 12:46 | 32.44727 | 106.90276 | 38123 ft | 390 kts | 240° |
| 2026-04-22 12:46 | 32.41532 | 106.85106 | 38110 ft | 387 kts | 240° |
| 2026-04-22 12:47 | 32.38358 | 106.79972 | 38125 ft | 385 kts | 240° |
| 2026-04-22 12:47 | 32.35256 | 106.74821 | 38115 ft | 382 kts | 245° |
| 2026-04-22 12:48 | 32.32897 | 106.69236 | 38131 ft | 379 kts | 250° |
| 2026-04-22 12:48 | 32.31096 | 106.63407 | 38104 ft | 381 kts | 257° |
| 2026-04-22 12:49 | 32.29788 | 106.57319 | 38124 ft | 384 kts | 257° |
| 2026-04-22 12:49 | 32.28482 | 106.51178 | 38099 ft | 386 kts | 257° |
| 2026-04-22 12:50 | 32.27154 | 106.45035 | 38116 ft | 383 kts | 257° |
| 2026-04-22 12:50 | 32.25828 | 106.38972 | 38107 ft | 380 kts | 257° |
| 2026-04-22 12:51 | 32.24507 | 106.32942 | 38111 ft | 378 kts | 257° |
| 2026-04-22 12:51 | 32.23196 | 106.26962 | 38103 ft | 379 kts | 257° |
| 2026-04-22 12:52 | 32.21803 | 106.20953 | 38109 ft | 381 kts | 253° |
| 2026-04-22 12:52 | 32.19736 | 106.15167 | 38128 ft | 383 kts | 248° |
| 2026-04-22 12:53 | 32.17115 | 106.09638 | 38149 ft | 386 kts | 243° |
| 2026-04-22 12:53 | 32.14203 | 106.04261 | 38055 ft | 391 kts | 242° |
| 2026-04-22 12:53 | 32.12722 | 106.01540 | 37482 ft | 397 kts | 242° |
| 2026-04-22 12:54 | 32.11237 | 105.98807 | 36828 ft | 394 kts | 242° |
| 2026-04-22 12:54 | 32.09768 | 105.96099 | 36220 ft | 390 kts | 242° |
| 2026-04-22 12:54 | 32.08315 | 105.93415 | 35634 ft | 388 kts | 241° |
| 2026-04-22 12:54 | 32.06861 | 105.90722 | 35061 ft | 391 kts | 241° |
| 2026-04-22 12:55 | 32.05890 | 105.88921 | 34695 ft | 395 kts | 241° |
| 2026-04-22 12:55 | 32.03900 | 105.85228 | 33939 ft | 404 kts | 240° |
| 2026-04-22 12:55 | 32.02376 | 105.82408 | 33321 ft | 410 kts | 240° |
| 2026-04-22 12:55 | 32.00840 | 105.79567 | 32699 ft | 415 kts | 240° |
| 2026-04-22 12:56 | 31.99297 | 105.76715 | 32118 ft | 419 kts | 240° |
| 2026-04-22 12:56 | 31.97723 | 105.73811 | 31529 ft | 422 kts | 241° |
| 2026-04-22 12:56 | 31.96133 | 105.70879 | 30922 ft | 425 kts | 241° |
| 2026-04-22 12:56 | 31.94534 | 105.67931 | 30372 ft | 431 kts | 241° |
| 2026-04-22 12:57 | 31.92918 | 105.64957 | 29743 ft | 431 kts | 241° |
| 2026-04-22 12:57 | 31.91303 | 105.61986 | 29086 ft | 430 kts | 241° |
| 2026-04-22 12:57 | 31.89688 | 105.59015 | 28461 ft | 432 kts | 241° |
| 2026-04-22 12:57 | 31.88067 | 105.56034 | 27838 ft | 432 kts | 241° |
| 2026-04-22 12:58 | 31.86447 | 105.53057 | 27215 ft | 432 kts | 241° |
| 2026-04-22 12:58 | 31.84824 | 105.50078 | 26603 ft | 431 kts | 241° |
| 2026-04-22 12:58 | 31.83204 | 105.47108 | 26025 ft | 436 kts | 241° |
| 2026-04-22 12:58 | 31.81569 | 105.44104 | 25477 ft | 446 kts | 241° |
| 2026-04-22 12:59 | 31.79885 | 105.41020 | 24913 ft | 447 kts | 241° |
| 2026-04-22 12:59 | 31.78208 | 105.37944 | 24350 ft | 447 kts | 241° |
| 2026-04-22 12:59 | 31.76534 | 105.34870 | 23822 ft | 447 kts | 241° |
| 2026-04-22 12:59 | 31.74861 | 105.31797 | 23240 ft | 446 kts | 241° |
| 2026-04-22 13:00 | 31.73189 | 105.28728 | 22596 ft | 446 kts | 241° |
| 2026-04-22 13:00 | 31.71517 | 105.25661 | 21974 ft | 446 kts | 241° |
| 2026-04-22 13:00 | 31.69852 | 105.22613 | 21365 ft | 440 kts | 241° |
| 2026-04-22 13:00 | 31.68213 | 105.19610 | 20744 ft | 434 kts | 241° |
| 2026-04-22 13:01 | 31.66614 | 105.16630 | 20167 ft | 429 kts | 242° |
| 2026-04-22 13:01 | 31.65039 | 105.13663 | 19579 ft | 427 kts | 242° |
| 2026-04-22 13:01 | 31.63468 | 105.10702 | 19016 ft | 426 kts | 242° |
| 2026-04-22 13:01 | 31.61906 | 105.07760 | 18474 ft | 426 kts | 242° |
| 2026-04-22 13:02 | 31.60329 | 105.04802 | 17871 ft | 426 kts | 241° |
| 2026-04-22 13:02 | 31.58754 | 105.01855 | 17256 ft | 426 kts | 241° |
| 2026-04-22 13:02 | 31.57178 | 104.98908 | 16641 ft | 426 kts | 241° |
| 2026-04-22 13:02 | 31.55610 | 104.95966 | 16058 ft | 425 kts | 240° |
| 2026-04-22 13:03 | 31.54066 | 104.93073 | 15494 ft | 422 kts | 240° |
| 2026-04-22 13:03 | 31.52475 | 104.90161 | 14887 ft | 415 kts | 236° |
| 2026-04-22 13:03 | 31.50478 | 104.87744 | 14280 ft | 413 kts | 217° |
| 2026-04-22 13:03 | 31.48125 | 104.85931 | 13765 ft | 410 kts | 214° |
| 2026-04-22 13:04 | 31.45726 | 104.84097 | 13146 ft | 413 kts | 214° |
| 2026-04-22 13:04 | 31.43332 | 104.82228 | 12529 ft | 413 kts | 215° |
| 2026-04-22 13:04 | 31.40951 | 104.80343 | 12047 ft | 411 kts | 215° |
| 2026-04-22 13:04 | 31.38586 | 104.78454 | 11868 ft | 410 kts | 215° |
| 2026-04-22 13:05 | 31.36239 | 104.76571 | 11787 ft | 409 kts | 215° |
| 2026-04-22 13:05 | 31.33895 | 104.74691 | 11786 ft | 408 kts | 215° |
| 2026-04-22 13:05 | 31.31555 | 104.72813 | 11783 ft | 408 kts | 215° |
| 2026-04-22 13:05 | 31.30005 | 104.71570 | 11786 ft | 408 kts | 215° |
| 2026-04-22 13:06 | 31.27664 | 104.69695 | 11788 ft | 408 kts | 215° |
| 2026-04-22 13:06 | 31.25318 | 104.67818 | 11787 ft | 408 kts | 215° |
| 2026-04-22 13:06 | 31.22119 | 104.65459 | 11787 ft | 406 kts | 208° |
| 2026-04-22 13:06 | 31.20430 | 104.64512 | 11798 ft | 407 kts | 204° |
| 2026-04-22 13:07 | 31.17826 | 104.63236 | 11725 ft | 404 kts | 202° |
| 2026-04-22 13:07 | 31.15240 | 104.62041 | 11468 ft | 395 kts | 202° |
| 2026-04-22 13:07 | 31.11916 | 104.60501 | 11196 ft | 380 kts | 202° |
| 2026-04-22 13:07 | 31.09495 | 104.59353 | 10989 ft | 370 kts | 202° |
| 2026-04-22 13:08 | 31.07899 | 104.58583 | 10837 ft | 364 kts | 202° |
| 2026-04-22 13:08 | 31.05595 | 104.57457 | 10647 ft | 355 kts | 203° |
| 2026-04-22 13:08 | 31.03346 | 104.56348 | 10449 ft | 347 kts | 203° |
| 2026-04-22 13:08 | 31.01151 | 104.55260 | 10311 ft | 338 kts | 203° |
| 2026-04-22 13:09 | 30.99032 | 104.54206 | 10304 ft | 325 kts | 203° |
| 2026-04-22 13:09 | 30.97015 | 104.53208 | 10258 ft | 315 kts | 203° |
| 2026-04-22 13:09 | 30.94989 | 104.52202 | 10110 ft | 318 kts | 202° |
| 2026-04-22 13:09 | 30.92951 | 104.51193 | 9904 ft | 318 kts | 202° |
| 2026-04-22 13:10 | 30.90915 | 104.50187 | 9698 ft | 317 kts | 202° |
| 2026-04-22 13:10 | 30.88891 | 104.49190 | 9440 ft | 313 kts | 202° |
| 2026-04-22 13:10 | 30.86902 | 104.48206 | 9260 ft | 310 kts | 202° |
| 2026-04-22 13:10 | 30.84922 | 104.47224 | 9055 ft | 309 kts | 202° |
| 2026-04-22 13:11 | 30.82953 | 104.46254 | 8859 ft | 307 kts | 202° |
| 2026-04-22 13:11 | 30.80995 | 104.45282 | 8649 ft | 304 kts | 202° |
| 2026-04-22 13:11 | 30.79056 | 104.44318 | 8444 ft | 302 kts | 203° |
| 2026-04-22 13:11 | 30.77136 | 104.43370 | 8227 ft | 299 kts | 203° |
| 2026-04-22 13:12 | 30.75255 | 104.42440 | 8064 ft | 296 kts | 203° |
| 2026-04-22 13:12 | 30.73360 | 104.41507 | 7847 ft | 294 kts | 202° |
| 2026-04-22 13:12 | 30.71488 | 104.40587 | 7642 ft | 291 kts | 203° |
| 2026-04-22 13:12 | 30.69626 | 104.39668 | 7452 ft | 290 kts | 202° |
| 2026-04-22 13:13 | 30.67760 | 104.38748 | 7293 ft | 292 kts | 202° |
| 2026-04-22 13:13 | 30.65894 | 104.37824 | 7073 ft | 288 kts | 202° |
| 2026-04-22 13:13 | 30.64057 | 104.36925 | 6909 ft | 284 kts | 202° |
| 2026-04-22 13:13 | 30.62237 | 104.36027 | 6684 ft | 284 kts | 203° |
| 2026-04-22 13:14 | 30.60430 | 104.35133 | 6553 ft | 282 kts | 203° |
| 2026-04-22 13:14 | 30.58615 | 104.34241 | 6381 ft | 284 kts | 202° |
| 2026-04-22 13:14 | 30.56787 | 104.33345 | 6183 ft | 285 kts | 203° |
| 2026-04-22 13:14 | 30.54980 | 104.32456 | 5956 ft | 285 kts | 202° |
| 2026-04-22 13:15 | 30.53180 | 104.31550 | 5760 ft | 276 kts | 208° |
| 2026-04-22 13:15 | 30.51758 | 104.30113 | 5513 ft | 271 kts | 236° |
| 2026-04-22 13:15 | 30.50905 | 104.28183 | 5371 ft | 270 kts | 247° |
| 2026-04-22 13:15 | 30.50162 | 104.26159 | 5211 ft | 275 kts | 248° |
| 2026-04-22 13:16 | 30.49422 | 104.24106 | 5015 ft | 276 kts | 248° |
| 2026-04-22 13:16 | 30.48678 | 104.22053 | 4859 ft | 275 kts | 248° |
| 2026-04-22 13:16 | 30.47938 | 104.20021 | 4621 ft | 272 kts | 248° |
| 2026-04-22 13:16 | 30.47205 | 104.18018 | 4429 ft | 268 kts | 247° |
| 2026-04-22 13:17 | 30.46481 | 104.16047 | 4236 ft | 264 kts | 247° |
| 2026-04-22 13:17 | 30.45759 | 104.14092 | 4061 ft | 264 kts | 247° |
| 2026-04-22 13:17 | 30.45040 | 104.12146 | 3992 ft | 262 kts | 247° |
| 2026-04-22 13:17 | 30.44323 | 104.10203 | 3939 ft | 262 kts | 247° |
| 2026-04-22 13:18 | 30.43602 | 104.08259 | 3947 ft | 264 kts | 247° |
| 2026-04-22 13:18 | 30.42881 | 104.06314 | 3920 ft | 258 kts | 247° |
| 2026-04-22 13:18 | 30.42188 | 104.04444 | 3923 ft | 248 kts | 247° |
| 2026-04-22 13:18 | 30.41521 | 104.02652 | 3928 ft | 235 kts | 247° |
| 2026-04-22 13:19 | 30.40927 | 104.00945 | 3907 ft | 220 kts | 258° |
| 2026-04-22 13:19 | 30.40878 | 103.99270 | 3963 ft | 200 kts | 274° |
| 2026-04-22 13:19 | 30.40955 | 103.97707 | 3998 ft | 193 kts | 272° |
| 2026-04-22 13:19 | 30.41004 | 103.96163 | 3947 ft | 187 kts | 272° |
| 2026-04-22 13:20 | 30.41054 | 103.94724 | 3928 ft | 175 kts | 273° |
| 2026-04-22 13:20 | 30.41196 | 103.93380 | 3925 ft | 164 kts | 290° |
| 2026-04-22 13:20 | 30.41945 | 103.92403 | 3975 ft | 168 kts | 329° |
| 2026-04-22 13:20 | 30.42981 | 103.91818 | 3974 ft | 166 kts | 336° |
| 2026-04-22 13:21 | 30.44099 | 103.91413 | 3607 ft | 166 kts | 343° |
| 2026-04-22 13:21 | 30.45206 | 103.91138 | 3280 ft | 161 kts | 352° |
| 2026-04-22 13:21 | 30.46299 | 103.91102 | 2986 ft | 157 kts | 7° |
| 2026-04-22 13:21 | 30.47328 | 103.91524 | 2836 ft | 161 kts | 23° |
| 2026-04-22 13:22 | 30.48373 | 103.92039 | 2559 ft | 163 kts | 20° |
| 2026-04-22 13:22 | 30.49415 | 103.92512 | 2273 ft | 158 kts | 21° |
| 2026-04-22 13:22 | 30.50429 | 103.92974 | 2043 ft | 156 kts | 21° |
| 2026-04-22 13:22 | 30.51442 | 103.93439 | 1831 ft | 158 kts | 21° |
| 2026-04-22 13:23 | 30.52465 | 103.93915 | 1682 ft | 155 kts | 21° |
| 2026-04-22 13:23 | 30.53364 | 103.94328 | 1674 ft | 116 kts | 21° |
| 2026-04-22 13:23 | 30.53911 | 103.94580 | 1667 ft | 42 kts | 21° |
| 2026-04-22 13:23 | 30.54194 | 103.94611 | 1653 ft | 41 kts | 353° |
| 2026-04-22 13:24 | 30.54395 | 103.94590 | 1652 ft | 24 kts | 8° |
| 2026-04-22 13:24 | 30.54551 | 103.94651 | 1652 ft | 24 kts | 22° |
| 2026-04-22 13:24 | 30.54704 | 103.94722 | 1652 ft | 24 kts | 21° |